Etusivu
METAR-TAF:

METAR-TAF

Lentoasemat :

Kangiqsualujjuaq, Quebec, Kanada

Leveyspiiri: 58-43N, Pituuspiiri: 065-59W, korkeus merenpinnasta: 60 m

Tämänhetkinen sää

Tämä raportti tehtiin 8 tuntia ja 43 minuuttia sitten, kello 19.00 UTC
Tuuli 18 kn pohjoisesta puuskistuen 24 kn:hen
Lämpötila -2°C
Kosteus 80%
Ilmanpaine 1005 hPa
Näkyvyys: 24.1 km
Muutamia pilviä 1200 ft:n korkeudessa
Hajonneita pilviä 12000 ft:n korkeudessa

METAR: CYLU 091900Z 36018G24KT 15SM FEW012 BKN120 M02/M05 A2969 RMK SC1AC7 SC TR LAST STFD OBS/NEXT 101130 UTC SLP062

Aika: 23:43 (03:43 UTC)


TAF: puuttuu

Säähavainnot ja -ennusteet yli 4000 lentoasemalta (METAR- ja TAF-raportit).

Käytössä olevat sääasemat on merkitty karttaan keltaisilla ja punaisilla pisteillä.

Aseta hiiri pisteen päälle nähdäksesi sääaseman nimen.

Klikkaa sitten nähdäksesi säähavainnot ja -ennusteet.

Kartan vaihtaminen: klikkaa mustalla rastilla varustettuja vihreitä pisteitä, niin voit zoomata sisään; viivalla varustettua vihreää pistettä, niin voit zoomata ulos tai vihreitä nuolia, niin pääset viereisille kartoille.


METAR-TAF: